createdAt,value
2022-09-24T00:01:51.703Z,17.58
2022-09-24T00:04:20.246Z,16.80
2022-09-24T00:06:49.873Z,17.35
2022-09-24T00:09:21.796Z,16.50
2022-09-24T00:11:51.513Z,16.40
2022-09-24T00:14:20.163Z,15.20
2022-09-24T00:16:48.238Z,14.25
2022-09-24T00:19:16.632Z,14.93
2022-09-24T00:21:44.770Z,16.15
2022-09-24T00:24:37.699Z,14.73
2022-09-24T00:27:06.005Z,19.65
2022-09-24T00:29:35.641Z,15.80
2022-09-24T00:32:04.783Z,14.13
2022-09-24T00:34:33.018Z,13.93
2022-09-24T00:37:01.037Z,14.10
2022-09-24T00:39:30.394Z,13.15
2022-09-24T00:41:58.260Z,13.65
2022-09-24T00:44:53.631Z,14.82
2022-09-24T00:47:29.975Z,14.60
2022-09-24T00:50:08.015Z,13.68
2022-09-24T00:52:39.143Z,13.60
2022-09-24T00:55:10.529Z,14.35
2022-09-24T00:57:39.649Z,13.57
2022-09-24T01:00:08.714Z,13.38
2022-09-24T01:02:38.229Z,14.40
2022-09-24T01:05:06.942Z,15.50
2022-09-24T01:07:35.326Z,16.00
2022-09-24T01:10:03.505Z,15.43
2022-09-24T01:12:37.958Z,15.73
2022-09-24T01:15:17.015Z,16.80
2022-09-24T01:17:52.367Z,15.93
2022-09-24T01:20:46.758Z,16.73
2022-09-24T01:23:38.188Z,16.83
2022-09-24T01:26:20.772Z,18.75
2022-09-24T01:29:21.571Z,17.88
2022-09-24T01:31:55.829Z,18.92
2022-09-24T01:34:29.770Z,19.63
2022-09-24T01:36:59.756Z,19.40
2022-09-24T01:39:29.138Z,20.70
2022-09-24T01:41:57.455Z,20.63
2022-09-24T01:44:27.187Z,20.85
2022-09-24T01:46:56.197Z,22.20
2022-09-24T01:49:24.336Z,21.63
2022-09-24T01:51:56.479Z,19.67
2022-09-24T01:54:28.782Z,20.52
2022-09-24T01:57:01.689Z,21.35
2022-09-24T01:59:36.683Z,20.00
2022-09-24T02:02:11.009Z,26.90
2022-09-24T02:04:43.528Z,22.20
2022-09-24T02:07:16.120Z,20.80
2022-09-24T02:09:45.126Z,21.50
2022-09-24T02:12:18.375Z,22.10
2022-09-24T02:14:52.591Z,21.30
2022-09-24T02:17:23.125Z,20.08
2022-09-24T02:19:51.652Z,20.92
2022-09-24T02:22:19.571Z,22.85
2022-09-24T02:24:50.773Z,19.80
2022-09-24T02:27:19.507Z,19.20
2022-09-24T02:29:49.058Z,20.20
2022-09-24T02:32:20.421Z,20.30
2022-09-24T02:35:02.014Z,20.48
2022-09-24T02:37:30.375Z,20.02
2022-09-24T02:39:58.439Z,19.98
2022-09-24T02:42:26.449Z,19.77
2022-09-24T02:44:57.390Z,20.35
2022-09-24T02:47:25.469Z,19.45
2022-09-24T02:49:53.601Z,19.55
2022-09-24T02:52:22.385Z,19.02
2022-09-24T02:54:51.163Z,18.63
2022-09-24T02:57:19.428Z,18.10
2022-09-24T02:59:47.433Z,19.42
2022-09-24T03:02:16.894Z,18.00
2022-09-24T03:04:44.873Z,18.77
2022-09-24T03:07:14.503Z,18.65
2022-09-24T03:09:42.620Z,19.67
2022-09-24T03:12:10.858Z,17.63
2022-09-24T03:14:38.710Z,19.92
2022-09-24T03:17:06.599Z,18.92
2022-09-24T03:19:35.867Z,19.02
2022-09-24T03:22:03.978Z,18.38
2022-09-24T03:24:31.944Z,19.38
2022-09-24T03:26:59.774Z,19.75
2022-09-24T03:29:41.648Z,20.33
2022-09-24T03:32:09.487Z,19.27
2022-09-24T03:34:38.600Z,20.08
2022-09-24T03:37:08.468Z,19.80
2022-09-24T03:39:36.307Z,19.75
2022-09-24T03:42:04.261Z,17.95
2022-09-24T03:44:32.216Z,24.40
2022-09-24T03:47:00.047Z,19.48
2022-09-24T03:49:28.017Z,19.55
2022-09-24T03:51:57.237Z,19.10
2022-09-24T03:54:25.108Z,18.88
2022-09-24T03:56:52.931Z,19.20
2022-09-24T03:59:20.940Z,18.55
2022-09-24T04:01:48.796Z,18.98
2022-09-24T04:04:16.792Z,18.45
2022-09-24T04:06:44.702Z,18.60
2022-09-24T04:09:13.887Z,17.75
2022-09-24T04:11:42.697Z,16.60
2022-09-24T04:14:10.544Z,16.92
2022-09-24T04:16:38.410Z,17.77
2022-09-24T04:19:08.089Z,17.20
2022-09-24T04:21:36.048Z,17.65
2022-09-24T04:24:04.165Z,17.00
2022-09-24T04:26:33.302Z,16.42
2022-09-24T04:29:01.087Z,16.75
2022-09-24T04:31:29.206Z,15.48
2022-09-24T04:33:57.273Z,16.30
2022-09-24T04:36:25.256Z,17.63
2022-09-24T04:38:53.064Z,17.35
2022-09-24T04:41:20.956Z,17.05
2022-09-24T04:43:51.320Z,15.95
2022-09-24T04:46:19.884Z,17.25
2022-09-24T04:48:47.718Z,15.65
2022-09-24T04:51:17.599Z,16.58
2022-09-24T04:53:47.812Z,15.70
2022-09-24T04:56:15.682Z,15.88
2022-09-24T04:58:43.693Z,15.98
2022-09-24T05:01:13.896Z,16.20
2022-09-24T05:03:41.727Z,16.38
2022-09-24T05:06:09.744Z,16.05
2022-09-24T05:08:37.701Z,14.50
2022-09-24T05:11:05.748Z,14.80
2022-09-24T05:13:33.913Z,15.80
2022-09-24T05:16:02.064Z,15.57
2022-09-24T05:18:31.448Z,14.15
2022-09-24T05:20:59.321Z,15.77
2022-09-24T05:23:27.213Z,15.32
2022-09-24T05:26:12.675Z,14.32
2022-09-24T05:28:42.792Z,14.73
2022-09-24T05:31:10.819Z,13.80
2022-09-24T05:33:40.364Z,13.98
2022-09-24T05:36:08.353Z,19.43
2022-09-24T05:38:38.832Z,15.85
2022-09-24T05:41:09.383Z,14.57
2022-09-24T05:43:37.895Z,14.88
2022-09-24T05:46:06.347Z,14.32
2022-09-24T05:48:34.576Z,14.45
2022-09-24T05:51:03.856Z,13.95
2022-09-24T05:53:31.816Z,14.02
2022-09-24T05:55:59.716Z,14.05
2022-09-24T05:58:27.871Z,14.52
2022-09-24T06:00:56.019Z,14.93
2022-09-24T06:03:24.051Z,14.95
2022-09-24T06:05:52.092Z,14.70
2022-09-24T06:08:22.115Z,16.25
2022-09-24T06:10:50.756Z,15.60
2022-09-24T06:13:20.837Z,14.57
2022-09-24T06:15:48.769Z,14.75
2022-09-24T06:18:16.913Z,14.55
2022-09-24T06:20:46.899Z,13.40
2022-09-24T06:23:14.884Z,14.70
2022-09-24T06:25:44.254Z,14.10
2022-09-24T06:28:12.118Z,14.15
2022-09-24T06:30:41.229Z,14.40
2022-09-24T06:33:11.359Z,13.55
2022-09-24T06:35:40.935Z,16.40
2022-09-24T06:38:12.386Z,15.40
2022-09-24T06:40:40.900Z,14.75
2022-09-24T06:43:11.940Z,15.52
2022-09-24T06:45:40.896Z,15.48
2022-09-24T06:48:10.671Z,15.40
2022-09-24T06:50:41.536Z,14.88
2022-09-24T06:53:10.986Z,14.43
2022-09-24T06:55:40.298Z,14.45
2022-09-24T06:58:11.856Z,13.63
2022-09-24T07:00:40.245Z,14.55
2022-09-24T07:03:08.870Z,15.77
2022-09-24T07:05:42.555Z,14.43
2022-09-24T07:08:11.695Z,14.77
2022-09-24T07:10:43.979Z,15.55
2022-09-24T07:13:14.908Z,14.27
2022-09-24T07:15:44.078Z,14.63
2022-09-24T07:18:13.399Z,16.27
2022-09-24T07:20:41.979Z,16.42
2022-09-24T07:23:12.183Z,17.88
2022-09-24T07:25:40.621Z,17.80
2022-09-24T07:28:11.132Z,17.63
2022-09-24T07:30:41.579Z,18.65
2022-09-24T07:33:09.882Z,18.90
2022-09-24T07:35:39.440Z,19.40
2022-09-24T07:38:12.066Z,20.23
2022-09-24T07:40:40.748Z,18.38
2022-09-24T07:43:12.369Z,18.45
2022-09-24T07:45:43.200Z,18.10
2022-09-24T07:48:13.011Z,18.90
2022-09-24T07:50:42.712Z,18.40
2022-09-24T07:53:12.479Z,19.98
2022-09-24T07:55:41.039Z,18.30
2022-09-24T07:58:12.835Z,18.48
2022-09-24T08:00:42.916Z,18.80
2022-09-24T08:03:11.444Z,16.35
2022-09-24T08:05:47.883Z,17.67
2022-09-24T08:08:18.965Z,18.95
2022-09-24T08:10:47.149Z,18.73
2022-09-24T08:13:15.983Z,17.23
2022-09-24T08:15:46.220Z,17.42
2022-09-24T08:18:14.280Z,17.67
2022-09-24T08:20:42.406Z,17.90
2022-09-24T08:23:11.324Z,16.45
2022-09-24T08:25:39.617Z,19.48
2022-09-24T08:28:10.632Z,17.95
2022-09-24T08:30:40.027Z,19.00
2022-09-24T08:33:09.601Z,18.67
2022-09-24T08:35:40.139Z,17.35
2022-09-24T08:38:09.118Z,18.58
2022-09-24T08:40:39.968Z,17.27
2022-09-24T08:43:20.771Z,18.63
2022-09-24T08:46:12.409Z,18.05
2022-09-24T08:48:45.666Z,18.77
2022-09-24T08:51:18.047Z,16.67
2022-09-24T08:53:50.165Z,16.38
2022-09-24T08:56:22.532Z,18.00
2022-09-24T08:58:55.487Z,17.67
2022-09-24T09:01:34.520Z,17.65
2022-09-24T09:04:15.659Z,18.05
2022-09-24T09:06:58.745Z,17.50
2022-09-24T09:09:33.825Z,18.23
2022-09-24T09:12:05.138Z,18.38
2022-09-24T09:14:42.525Z,17.23
2022-09-24T09:17:25.366Z,17.85
2022-09-24T09:19:58.559Z,16.58
2022-09-24T09:22:31.003Z,17.05
2022-09-24T09:25:04.998Z,16.90
2022-09-24T09:27:33.212Z,18.00
2022-09-24T09:30:10.405Z,16.88
2022-09-24T09:32:52.078Z,19.90
2022-09-24T09:35:29.321Z,16.83
2022-09-24T09:38:08.148Z,15.57
2022-09-24T09:40:42.785Z,15.07
2022-09-24T09:43:13.224Z,15.02
2022-09-24T09:45:47.710Z,13.48
2022-09-24T09:48:20.919Z,14.68
2022-09-24T09:50:53.305Z,13.35
2022-09-24T09:53:22.167Z,12.80
2022-09-24T09:55:55.457Z,12.57
2022-09-24T09:58:25.832Z,13.82
2022-09-24T10:01:03.911Z,12.18
2022-09-24T10:03:34.890Z,15.23
2022-09-24T10:06:07.812Z,12.07
2022-09-24T10:08:35.959Z,11.73
2022-09-24T10:11:04.777Z,12.23
2022-09-24T10:13:33.094Z,11.25
2022-09-24T10:16:04.232Z,11.93
2022-09-24T10:18:35.327Z,11.88
2022-09-24T10:21:09.700Z,11.15
2022-09-24T10:23:40.150Z,10.23
2022-09-24T10:26:09.084Z,11.10
2022-09-24T10:29:00.715Z,12.73
2022-09-24T10:31:32.796Z,10.77
2022-09-24T10:34:02.577Z,11.32
2022-09-24T10:36:33.657Z,11.70
2022-09-24T10:39:10.369Z,11.00
2022-09-24T10:41:38.768Z,11.48
2022-09-24T10:44:12.181Z,11.35
2022-09-24T10:47:09.031Z,11.55
2022-09-24T10:50:00.833Z,11.20
2022-09-24T10:52:54.851Z,11.40
2022-09-24T10:55:40.894Z,10.73
2022-09-24T10:58:34.960Z,11.35
2022-09-24T11:01:15.479Z,10.98
2022-09-24T11:03:57.175Z,12.15
2022-09-24T11:06:38.212Z,11.63
2022-09-24T11:09:19.021Z,11.80
2022-09-24T11:11:56.947Z,11.32
2022-09-24T11:14:46.657Z,12.35
2022-09-24T11:17:33.235Z,12.05
2022-09-24T11:20:16.360Z,11.82
2022-09-24T11:23:08.252Z,11.85
2022-09-24T11:25:45.872Z,11.93
2022-09-24T11:28:29.728Z,12.30
2022-09-24T11:31:07.528Z,12.10
2022-09-24T11:33:54.128Z,11.23
2022-09-24T11:36:34.996Z,11.30
2022-09-24T11:39:21.320Z,10.77
2022-09-24T11:41:59.915Z,11.70
2022-09-24T11:44:56.744Z,11.77
2022-09-24T11:47:37.837Z,10.32
2022-09-24T11:50:21.988Z,10.20
2022-09-24T11:52:54.975Z,9.43
2022-09-24T11:55:31.811Z,9.82
2022-09-24T11:58:13.544Z,9.70
2022-09-24T12:00:47.534Z,9.98
2022-09-24T12:03:25.907Z,9.07
2022-09-24T12:06:00.639Z,7.72
2022-09-24T12:08:33.614Z,7.32
2022-09-24T12:11:05.582Z,9.63
2022-09-24T12:13:41.299Z,7.30
2022-09-24T12:16:14.457Z,4.70
2022-09-24T12:18:51.436Z,3.63
2022-09-24T12:21:23.535Z,3.97
2022-09-24T12:23:56.240Z,3.00
2022-09-24T12:26:32.283Z,3.25
2022-09-24T12:29:25.758Z,2.88
2022-09-24T12:32:16.428Z,3.30
2022-09-24T12:34:51.942Z,3.00
2022-09-24T12:37:24.723Z,3.05
2022-09-24T12:40:01.111Z,3.20
2022-09-24T12:42:35.393Z,2.75
2022-09-24T12:45:10.544Z,2.90
2022-09-24T12:47:48.084Z,2.00
2022-09-24T12:50:23.948Z,2.47
2022-09-24T12:52:52.474Z,2.08
2022-09-24T12:55:23.116Z,2.13
2022-09-24T12:57:54.204Z,2.30
2022-09-24T13:00:40.952Z,1.52
2022-09-24T13:03:24.482Z,1.70
2022-09-24T13:05:52.642Z,1.98
2022-09-24T13:08:28.284Z,1.50
2022-09-24T13:10:58.846Z,1.80
2022-09-24T13:13:29.357Z,1.85
2022-09-24T13:16:04.896Z,1.77
2022-09-24T13:18:34.733Z,1.77
2022-09-24T13:21:06.027Z,1.67
2022-09-24T13:23:48.397Z,1.80
2022-09-24T13:26:33.728Z,1.85
2022-09-24T13:29:03.509Z,2.05
2022-09-24T13:31:41.572Z,1.98
2022-09-24T13:34:20.896Z,2.50
2022-09-24T13:36:54.283Z,1.90
2022-09-24T13:39:25.961Z,1.60
2022-09-24T13:42:01.483Z,2.00
2022-09-24T13:44:32.629Z,2.45
2022-09-24T13:47:06.447Z,2.42
2022-09-24T13:49:35.757Z,2.20
2022-09-24T13:52:14.054Z,1.42
2022-09-24T13:54:50.337Z,1.73
2022-09-24T13:57:23.493Z,1.50
2022-09-24T14:00:01.931Z,1.80
2022-09-24T14:02:35.090Z,2.13
2022-09-24T14:05:03.612Z,1.88
2022-09-24T14:07:31.849Z,2.10
2022-09-24T14:10:09.090Z,2.03
2022-09-24T14:12:37.392Z,2.30
2022-09-24T14:15:14.503Z,2.13
2022-09-24T14:20:19.780Z,2.15
2022-09-24T14:22:48.356Z,2.90
2022-09-24T14:25:19.730Z,2.25
2022-09-24T14:27:50.734Z,3.10
2022-09-24T14:30:22.347Z,2.70
2022-09-24T14:32:54.503Z,2.75
2022-09-24T14:35:29.990Z,2.63
2022-09-24T14:38:04.417Z,2.90
2022-09-24T14:40:41.840Z,2.67
2022-09-24T14:43:19.153Z,2.63
2022-09-24T14:45:48.476Z,2.80
2022-09-24T14:48:26.956Z,3.10
2022-09-24T14:50:57.124Z,3.17
2022-09-24T14:53:28.149Z,3.20
2022-09-24T14:55:57.379Z,3.47
2022-09-24T14:58:33.268Z,2.88
2022-09-24T15:01:03.259Z,3.60
2022-09-24T15:03:38.402Z,3.67
2022-09-24T15:06:19.085Z,6.53
2022-09-24T15:08:58.058Z,5.07
2022-09-24T15:11:28.801Z,3.72
2022-09-24T15:14:02.687Z,3.42
2022-09-24T15:16:33.605Z,2.95
2022-09-24T15:19:19.615Z,2.92
2022-09-24T15:21:50.863Z,6.65
2022-09-24T15:24:20.451Z,6.35
2022-09-24T15:26:51.025Z,10.55
2022-09-24T15:29:24.881Z,5.53
2022-09-24T15:31:53.442Z,3.88
2022-09-24T15:34:21.956Z,3.78
2022-09-24T15:36:55.374Z,3.97
2022-09-24T15:39:23.623Z,4.00
2022-09-24T15:41:51.699Z,2.72
2022-09-24T15:44:23.049Z,3.10
2022-09-24T15:46:52.209Z,2.90
2022-09-24T15:49:22.196Z,1.95
2022-09-24T15:51:54.356Z,2.75
2022-09-24T15:54:24.828Z,2.55
2022-09-24T15:56:53.168Z,2.58
2022-09-24T15:59:23.581Z,2.53
2022-09-24T16:01:55.712Z,2.90
2022-09-24T16:04:23.900Z,2.58
2022-09-24T16:06:53.354Z,2.30
2022-09-24T16:09:22.172Z,2.10
2022-09-24T16:11:50.236Z,1.80
2022-09-24T16:14:18.488Z,2.47
2022-09-24T16:16:46.735Z,1.83
2022-09-24T16:19:14.975Z,1.90
2022-09-24T16:21:43.193Z,2.10
2022-09-24T16:24:12.557Z,2.40
2022-09-24T16:26:40.556Z,2.30
2022-09-24T16:29:10.410Z,2.10
2022-09-24T16:31:38.581Z,2.75
2022-09-24T16:34:06.767Z,2.47
2022-09-24T16:36:34.923Z,2.40
2022-09-24T16:39:03.140Z,2.97
2022-09-24T16:41:34.598Z,3.00
2022-09-24T16:44:03.010Z,2.97
2022-09-24T16:46:31.511Z,2.90
2022-09-24T16:49:00.084Z,2.15
2022-09-24T16:51:28.128Z,3.22
2022-09-24T16:53:56.729Z,4.47
2022-09-24T16:56:24.973Z,3.97
2022-09-24T16:58:54.723Z,4.80
2022-09-24T17:01:23.257Z,3.95
2022-09-24T17:03:55.440Z,4.20
2022-09-24T17:06:25.321Z,4.82
2022-09-24T17:09:11.519Z,5.30
2022-09-24T17:11:40.690Z,4.18
2022-09-24T17:14:12.482Z,3.92
2022-09-24T17:16:41.086Z,3.88
2022-09-24T17:19:09.849Z,2.40
2022-09-24T17:21:40.298Z,2.58
2022-09-24T17:24:09.349Z,2.72
2022-09-24T17:26:39.241Z,3.13
2022-09-24T17:29:07.362Z,2.95
2022-09-24T17:31:36.976Z,2.78
2022-09-24T17:34:07.181Z,3.15
2022-09-24T17:36:36.188Z,3.28
2022-09-24T17:39:05.470Z,3.33
2022-09-24T17:41:34.104Z,3.55
2022-09-24T17:44:02.459Z,5.07
2022-09-24T17:46:32.043Z,6.75
2022-09-24T17:49:02.143Z,5.50
2022-09-24T17:51:32.956Z,3.08
2022-09-24T17:54:02.669Z,2.65
2022-09-24T17:56:33.102Z,2.50
2022-09-24T17:59:01.800Z,1.88
2022-09-24T18:01:33.434Z,2.20
2022-09-24T18:04:04.172Z,2.10
2022-09-24T18:06:33.626Z,2.15
2022-09-24T18:09:02.538Z,2.70
2022-09-24T18:11:33.332Z,1.98
2022-09-24T18:14:02.582Z,2.53
2022-09-24T18:16:32.467Z,2.75
2022-09-24T18:19:03.732Z,3.28
2022-09-24T18:21:31.978Z,2.58
2022-09-24T18:24:01.188Z,3.22
2022-09-24T18:26:32.562Z,3.92
2022-09-24T18:29:03.919Z,3.33
2022-09-24T18:31:32.930Z,2.85
2022-09-24T18:34:05.145Z,3.15
2022-09-24T18:36:34.926Z,2.10
2022-09-24T18:39:03.419Z,1.98
2022-09-24T18:41:32.059Z,2.20
2022-09-24T18:44:01.133Z,2.67
2022-09-24T18:46:31.419Z,1.80
2022-09-24T18:49:00.355Z,1.45
2022-09-24T18:51:31.383Z,1.83
2022-09-24T18:54:00.799Z,1.80
2022-09-24T18:56:29.015Z,1.67
2022-09-24T18:58:57.952Z,1.60
2022-09-24T19:01:26.927Z,1.90
2022-09-24T19:03:55.532Z,1.67
2022-09-24T19:06:23.637Z,1.88
2022-09-24T19:08:52.942Z,1.75
2022-09-24T19:11:21.517Z,2.03
2022-09-24T19:13:51.053Z,1.85
2022-09-24T19:16:20.848Z,1.27
2022-09-24T19:18:49.130Z,1.55
2022-09-24T19:21:17.186Z,1.52
2022-09-24T19:23:47.387Z,1.80
2022-09-24T19:26:18.876Z,1.63
2022-09-24T19:28:50.459Z,1.85
2022-09-24T19:31:21.820Z,1.85
2022-09-24T19:33:50.381Z,1.95
2022-09-24T19:36:18.922Z,2.10
2022-09-24T19:38:47.751Z,1.77
2022-09-24T19:41:21.327Z,2.30
2022-09-24T19:43:50.792Z,2.38
2022-09-24T19:46:20.613Z,2.15
2022-09-24T19:48:50.331Z,1.88
2022-09-24T19:51:20.542Z,1.90
2022-09-24T19:53:49.594Z,1.90
2022-09-24T19:56:22.288Z,1.45
2022-09-24T19:58:52.710Z,1.80
2022-09-24T20:01:21.930Z,2.00
2022-09-24T20:03:50.667Z,1.50
2022-09-24T20:06:21.070Z,1.90
2022-09-24T20:08:49.269Z,1.73
2022-09-24T20:11:20.923Z,1.85
2022-09-24T20:13:49.937Z,1.63
2022-09-24T20:16:19.597Z,2.72
2022-09-24T20:18:48.307Z,2.10
2022-09-24T20:21:18.333Z,2.83
2022-09-24T20:23:47.940Z,2.60
2022-09-24T20:26:35.633Z,3.15
2022-09-24T20:29:05.821Z,2.65
2022-09-24T20:31:34.309Z,1.73
2022-09-24T20:34:02.143Z,1.75
2022-09-24T20:36:30.194Z,1.80
2022-09-24T20:38:59.814Z,1.73
2022-09-24T20:41:29.200Z,2.00
2022-09-24T20:43:57.042Z,1.70
2022-09-24T20:46:26.532Z,1.40
2022-09-24T20:48:58.015Z,1.57
2022-09-24T20:51:27.855Z,1.35
2022-09-24T20:53:56.251Z,1.40
2022-09-24T20:56:24.407Z,1.53
2022-09-24T20:58:54.817Z,1.65
2022-09-24T21:01:24.287Z,1.17
2022-09-24T21:03:52.798Z,1.73
2022-09-24T21:06:22.866Z,1.73
2022-09-24T21:08:52.314Z,1.83
2022-09-24T21:11:22.416Z,1.73
2022-09-24T21:13:51.754Z,1.50
2022-09-24T21:16:23.731Z,1.40
2022-09-24T21:18:54.150Z,1.80
2022-09-24T21:21:23.927Z,1.93
2022-09-24T21:23:53.890Z,1.90
2022-09-24T21:26:25.740Z,2.10
2022-09-24T21:28:55.960Z,1.90
2022-09-24T21:31:27.560Z,1.57
2022-09-24T21:33:55.482Z,1.77
2022-09-24T21:36:25.711Z,1.48
2022-09-24T21:38:57.067Z,1.70
2022-09-24T21:41:26.300Z,1.30
2022-09-24T21:43:55.499Z,1.07
2022-09-24T21:46:26.106Z,2.03
2022-09-24T21:48:55.902Z,2.13
2022-09-24T21:51:26.837Z,2.00
2022-09-24T21:53:57.649Z,2.03
2022-09-24T21:56:25.512Z,2.07
2022-09-24T21:58:54.167Z,2.00
2022-09-24T22:01:26.018Z,2.20
2022-09-24T22:03:56.405Z,2.20
2022-09-24T22:06:28.668Z,2.00
2022-09-24T22:08:57.814Z,2.10
2022-09-24T22:11:27.402Z,1.90
2022-09-24T22:14:00.941Z,1.70
2022-09-24T22:16:29.218Z,1.53
2022-09-24T22:18:59.143Z,1.70
2022-09-24T22:21:27.336Z,1.80
2022-09-24T22:23:56.557Z,2.20
2022-09-24T22:26:26.116Z,2.50
2022-09-24T22:28:55.245Z,2.57
2022-09-24T22:31:23.560Z,2.70
2022-09-24T22:34:20.652Z,2.30
2022-09-24T22:36:50.241Z,2.20
2022-09-24T22:39:18.274Z,1.83
2022-09-24T22:41:46.401Z,1.93
2022-09-24T22:44:14.349Z,1.97
2022-09-24T22:46:42.358Z,1.87
2022-09-24T22:49:10.989Z,2.10
2022-09-24T22:51:39.493Z,1.80
2022-09-24T22:54:10.489Z,2.13
2022-09-24T22:56:38.492Z,1.80
2022-09-24T22:59:06.690Z,2.10
2022-09-24T23:01:39.457Z,2.20
2022-09-24T23:04:07.499Z,2.10
2022-09-24T23:06:35.462Z,1.60
2022-09-24T23:09:04.078Z,1.93
2022-09-24T23:11:34.980Z,2.33
2022-09-24T23:14:04.825Z,2.00
2022-09-24T23:16:34.659Z,1.87
2022-09-24T23:19:04.316Z,2.30
2022-09-24T23:21:33.537Z,1.80
2022-09-24T23:24:03.437Z,2.00
2022-09-24T23:26:32.959Z,1.80
2022-09-24T23:29:01.683Z,1.70
2022-09-24T23:31:31.438Z,1.90
2022-09-24T23:34:01.810Z,1.90
2022-09-24T23:36:31.946Z,2.00
2022-09-24T23:39:00.726Z,1.47
2022-09-24T23:41:30.877Z,1.93
2022-09-24T23:44:00.368Z,1.83
2022-09-24T23:46:28.568Z,1.60
2022-09-24T23:48:57.105Z,1.90
2022-09-24T23:51:28.126Z,1.60
2022-09-24T23:53:56.096Z,1.40
2022-09-24T23:56:24.096Z,1.70
2022-09-24T23:58:52.242Z,1.37
